createdAt,value
2023-02-26T00:01:33.259Z,-1.45
2023-02-26T00:04:39.194Z,-1.54
2023-02-26T00:07:46.556Z,-1.64
2023-02-26T00:10:52.102Z,-1.61
2023-02-26T00:14:02.175Z,-1.59
2023-02-26T00:17:36.994Z,-1.52
2023-02-26T00:20:44.230Z,-1.57
2023-02-26T00:23:50.294Z,-1.59
2023-02-26T00:26:57.456Z,-1.57
2023-02-26T00:30:12.527Z,-1.70
2023-02-26T00:33:20.747Z,-1.67
2023-02-26T00:36:34.015Z,-1.66
2023-02-26T00:39:54.570Z,-1.66
2023-02-26T00:43:00.815Z,-1.70
2023-02-26T00:46:26.606Z,-1.82
2023-02-26T00:50:00.194Z,-1.84
2023-02-26T00:53:20.886Z,-1.90
2023-02-26T00:56:26.702Z,-1.80
2023-02-26T00:59:33.468Z,-2.09
2023-02-26T01:02:44.767Z,-1.87
2023-02-26T01:05:51.709Z,-2.10
2023-02-26T01:09:14.143Z,-2.02
2023-02-26T01:12:21.310Z,-2.00
2023-02-26T01:15:27.447Z,-2.02
2023-02-26T01:18:48.360Z,-2.01
2023-02-26T01:22:06.788Z,-1.92
2023-02-26T01:25:24.710Z,-2.01
2023-02-26T01:28:31.552Z,-1.91
2023-02-26T01:31:52.668Z,-1.96
2023-02-26T01:35:16.515Z,-2.03
2023-02-26T01:38:35.382Z,-2.00
2023-02-26T01:41:50.920Z,-3.29
2023-02-26T01:45:06.223Z,-2.20
2023-02-26T01:48:36.478Z,-2.12
2023-02-26T01:51:52.921Z,-2.18
2023-02-26T01:54:58.410Z,-2.14
2023-02-26T01:58:06.826Z,-2.06
2023-02-26T02:01:13.324Z,-2.18
2023-02-26T02:04:21.344Z,-2.25
2023-02-26T02:07:29.603Z,-2.39
2023-02-26T02:10:36.342Z,-2.30
2023-02-26T02:14:04.661Z,-2.31
2023-02-26T02:17:23.052Z,-2.33
2023-02-26T02:21:26.339Z,-2.54
2023-02-26T02:25:01.099Z,-2.51
2023-02-26T02:28:30.890Z,-2.39
2023-02-26T02:31:49.029Z,-2.41
2023-02-26T02:35:06.095Z,-2.37
2023-02-26T02:38:22.141Z,-2.39
2023-02-26T02:41:46.486Z,-2.39
2023-02-26T02:45:02.071Z,-2.27
2023-02-26T02:48:20.892Z,-2.42
2023-02-26T02:51:35.644Z,-2.36
2023-02-26T02:54:57.401Z,-2.31
2023-02-26T02:58:09.859Z,-2.59
2023-02-26T03:01:25.230Z,-2.49
2023-02-26T03:04:33.854Z,-2.46
2023-02-26T03:07:53.360Z,-2.47
2023-02-26T03:11:00.088Z,-2.46
2023-02-26T03:14:10.406Z,-2.55
2023-02-26T03:17:32.322Z,-2.60
2023-02-26T03:20:59.160Z,-2.64
2023-02-26T03:24:19.186Z,-4.47
2023-02-26T03:27:35.820Z,-2.81
2023-02-26T03:30:50.511Z,-2.69
2023-02-26T03:34:05.066Z,-2.63
2023-02-26T03:37:28.317Z,-2.63
2023-02-26T03:40:43.709Z,-2.60
2023-02-26T03:44:02.283Z,-2.54
2023-02-26T03:47:16.854Z,-2.59
2023-02-26T03:50:35.701Z,-2.56
2023-02-26T03:54:25.806Z,-2.58
2023-02-26T03:57:46.974Z,-2.65
2023-02-26T04:01:15.905Z,-2.67
2023-02-26T04:04:31.566Z,-2.74
2023-02-26T04:07:38.417Z,-2.66
2023-02-26T04:10:56.548Z,-2.64
2023-02-26T04:14:03.186Z,-2.67
2023-02-26T04:17:13.128Z,-2.67
2023-02-26T04:20:20.037Z,-2.68
2023-02-26T04:23:25.628Z,-2.66
2023-02-26T04:26:35.295Z,-2.69
2023-02-26T04:29:40.897Z,-2.73
2023-02-26T04:32:47.262Z,-2.81
2023-02-26T04:35:53.962Z,-2.83
2023-02-26T04:39:00.428Z,-2.91
2023-02-26T04:42:08.825Z,-2.81
2023-02-26T04:45:15.823Z,-2.89
2023-02-26T04:48:21.273Z,-2.86
2023-02-26T04:51:27.910Z,-2.86
2023-02-26T04:54:35.147Z,-2.83
2023-02-26T04:57:44.341Z,-2.81
2023-02-26T05:00:53.841Z,-2.79
2023-02-26T05:04:01.449Z,-2.74
2023-02-26T05:07:08.506Z,-2.73
2023-02-26T05:10:15.904Z,-2.84
2023-02-26T05:13:25.222Z,-2.75
2023-02-26T05:16:31.645Z,-2.74
2023-02-26T05:19:37.198Z,-2.66
2023-02-26T05:22:45.361Z,-2.72
2023-02-26T05:25:51.698Z,-2.69
2023-02-26T05:29:00.974Z,-2.70
2023-02-26T05:32:07.198Z,-2.69
2023-02-26T05:35:14.876Z,-2.71
2023-02-26T05:38:20.567Z,-2.66
2023-02-26T05:41:27.134Z,-2.66
2023-02-26T05:44:35.599Z,-2.61
2023-02-26T05:47:41.991Z,-2.65
2023-02-26T05:50:47.927Z,-2.76
2023-02-26T05:53:54.235Z,-2.84
2023-02-26T05:56:59.926Z,-2.81
2023-02-26T06:00:13.331Z,-2.88
2023-02-26T06:03:19.056Z,-2.83
2023-02-26T06:06:27.294Z,-2.91
2023-02-26T06:09:32.989Z,-2.89
2023-02-26T06:12:40.155Z,-2.91
2023-02-26T06:15:48.611Z,-2.86
2023-02-26T06:18:55.093Z,-2.80
2023-02-26T06:22:00.709Z,-2.76
2023-02-26T06:25:08.120Z,-2.81
2023-02-26T06:28:13.505Z,-2.71
2023-02-26T06:31:22.886Z,-2.64
2023-02-26T06:34:28.369Z,-2.63
2023-02-26T06:37:34.852Z,-2.69
2023-02-26T06:40:40.398Z,-2.65
2023-02-26T06:43:46.759Z,-2.66
2023-02-26T06:46:55.273Z,-2.68
2023-02-26T06:50:03.115Z,-2.66
2023-02-26T06:53:08.620Z,-2.57
2023-02-26T06:56:15.160Z,-2.47
2023-02-26T06:59:20.778Z,-2.46
2023-02-26T07:02:30.163Z,-2.29
2023-02-26T07:05:35.565Z,-2.15
2023-02-26T07:08:43.438Z,-2.33
2023-02-26T07:11:49.272Z,-2.02
2023-02-26T07:14:55.838Z,-2.00
2023-02-26T07:18:04.212Z,-1.94
2023-02-26T07:21:10.563Z,-1.89
2023-02-26T07:24:16.177Z,-1.90
2023-02-26T07:27:30.156Z,-1.89
2023-02-26T07:30:36.135Z,-1.83
2023-02-26T07:33:45.313Z,-1.85
2023-02-26T07:36:50.817Z,-1.86
2023-02-26T07:39:57.084Z,-1.79
2023-02-26T07:43:02.755Z,-1.71
2023-02-26T07:46:09.702Z,-1.67
2023-02-26T07:49:18.083Z,-1.53
2023-02-26T07:52:24.469Z,-1.46
2023-02-26T07:55:30.198Z,-1.39
2023-02-26T07:58:36.904Z,-1.37
2023-02-26T08:01:42.648Z,-1.48
2023-02-26T08:04:52.205Z,-1.49
2023-02-26T08:07:57.684Z,-1.42
2023-02-26T08:11:06.276Z,-1.39
2023-02-26T08:14:14.464Z,-1.39
2023-02-26T08:17:20.759Z,-1.40
2023-02-26T08:20:29.155Z,-1.48
2023-02-26T08:23:35.599Z,-1.59
2023-02-26T08:26:42.074Z,-1.59
2023-02-26T08:29:51.596Z,-1.70
2023-02-26T08:32:57.533Z,-1.77
2023-02-26T08:36:07.094Z,-2.02
2023-02-26T08:39:12.917Z,-2.27
2023-02-26T08:42:20.686Z,-2.30
2023-02-26T08:45:26.150Z,-2.35
2023-02-26T08:48:32.480Z,-2.44
2023-02-26T08:51:40.633Z,-2.57
2023-02-26T08:55:20.083Z,-2.53
2023-02-26T08:58:25.547Z,-2.64
2023-02-26T09:01:31.795Z,-2.69
2023-02-26T09:04:37.412Z,-2.78
2023-02-26T09:07:47.574Z,-2.89
2023-02-26T09:10:53.422Z,-2.82
2023-02-26T09:13:59.905Z,-2.68
2023-02-26T09:17:05.670Z,-2.62
2023-02-26T09:20:15.554Z,-2.43
2023-02-26T09:23:23.741Z,-2.26
2023-02-26T09:26:30.056Z,-2.09
2023-02-26T09:29:35.726Z,-2.03
2023-02-26T09:32:42.315Z,-1.98
2023-02-26T09:35:47.985Z,-1.95
2023-02-26T09:38:57.100Z,-1.81
2023-02-26T09:42:22.552Z,-1.93
2023-02-26T09:45:36.961Z,-1.99
2023-02-26T09:48:46.107Z,-2.05
2023-02-26T09:52:09.845Z,-2.04
2023-02-26T09:55:32.458Z,-1.97
2023-02-26T09:58:44.585Z,-1.91
2023-02-26T10:02:02.096Z,-1.78
2023-02-26T10:05:24.020Z,-1.67
2023-02-26T10:08:43.008Z,-1.54
2023-02-26T10:12:03.560Z,-1.46
2023-02-26T10:15:18.423Z,-1.51
2023-02-26T10:18:34.725Z,-1.71
2023-02-26T10:21:48.255Z,-1.77
2023-02-26T10:25:05.092Z,-1.75
2023-02-26T10:28:48.669Z,-1.59
2023-02-26T10:32:10.448Z,-1.48
2023-02-26T10:35:25.978Z,-1.48
2023-02-26T10:38:35.874Z,-1.51
2023-02-26T10:41:41.578Z,-1.46
2023-02-26T10:45:11.082Z,-1.38
2023-02-26T10:48:43.687Z,-1.43
2023-02-26T10:51:52.992Z,-1.37
2023-02-26T10:55:38.062Z,-1.35
2023-02-26T10:58:44.741Z,-1.64
2023-02-26T11:01:57.044Z,-1.62
2023-02-26T11:05:07.925Z,-1.51
2023-02-26T11:08:21.877Z,-1.47
2023-02-26T11:11:50.283Z,-1.62
2023-02-26T11:14:56.428Z,-1.75
2023-02-26T11:18:07.030Z,-1.79
2023-02-26T11:21:21.010Z,-1.76
2023-02-26T11:24:37.574Z,-1.73
2023-02-26T11:27:43.310Z,-1.77
2023-02-26T11:30:54.497Z,-1.81
2023-02-26T11:34:08.559Z,-1.79
2023-02-26T11:37:15.119Z,-1.75
2023-02-26T11:40:32.453Z,-1.70
2023-02-26T11:43:45.390Z,-1.56
2023-02-26T11:46:58.826Z,-1.53
2023-02-26T11:50:18.962Z,-1.47
2023-02-26T11:53:34.313Z,-1.48
2023-02-26T11:56:45.674Z,-3.12
2023-02-26T11:59:56.127Z,-1.42
2023-02-26T12:03:08.436Z,-1.85
2023-02-26T12:06:22.800Z,-1.55
2023-02-26T12:09:30.293Z,-1.57
2023-02-26T12:13:03.566Z,-1.49
2023-02-26T12:16:26.064Z,-1.56
2023-02-26T12:19:55.546Z,-1.73
2023-02-26T12:23:46.353Z,-1.71
2023-02-26T12:27:06.822Z,-1.69
2023-02-26T12:31:06.885Z,-1.61
2023-02-26T12:34:39.307Z,-1.49
2023-02-26T12:38:08.428Z,-1.37
2023-02-26T12:41:57.723Z,-1.42
2023-02-26T12:45:34.097Z,-2.04
2023-02-26T12:49:28.526Z,-1.21
2023-02-26T12:53:14.429Z,-1.21
2023-02-26T12:57:05.876Z,-1.26
2023-02-26T13:00:48.878Z,-1.50
2023-02-26T13:04:42.208Z,-1.82
2023-02-26T13:08:22.055Z,-1.88
2023-02-26T13:11:58.484Z,-1.84
2023-02-26T13:15:33.704Z,-1.76
2023-02-26T13:18:53.635Z,-1.69
2023-02-26T13:22:10.300Z,-1.64
2023-02-26T13:25:26.591Z,-1.63
2023-02-26T13:28:46.601Z,-1.66
2023-02-26T13:32:07.759Z,-1.80
2023-02-26T13:35:28.415Z,-1.78
2023-02-26T13:38:56.674Z,-1.85
2023-02-26T13:42:25.317Z,-1.83
2023-02-26T13:45:57.282Z,-1.76
2023-02-26T13:49:17.729Z,-1.69
2023-02-26T13:52:30.947Z,-1.62
2023-02-26T13:55:47.505Z,-1.59
2023-02-26T13:58:58.442Z,-1.54
2023-02-26T14:02:40.929Z,-1.56
2023-02-26T14:06:29.448Z,-1.57
2023-02-26T14:09:55.865Z,-1.55
2023-02-26T14:13:20.184Z,-1.57
2023-02-26T14:16:31.924Z,-1.54
2023-02-26T14:19:44.229Z,-1.50
2023-02-26T14:22:55.937Z,-1.38
2023-02-26T14:26:16.293Z,-1.43
2023-02-26T14:29:42.554Z,-1.39
2023-02-26T14:32:57.614Z,-1.37
2023-02-26T14:36:19.249Z,-1.40
2023-02-26T14:39:42.795Z,-1.46
2023-02-26T14:42:56.892Z,-1.55
2023-02-26T14:46:02.425Z,-1.53
2023-02-26T14:49:21.733Z,-1.71
2023-02-26T14:53:23.839Z,-1.79
2023-02-26T14:56:55.164Z,-1.83
2023-02-26T15:00:20.324Z,-1.96
2023-02-26T15:04:00.803Z,-1.96
2023-02-26T15:07:35.876Z,-1.92
2023-02-26T15:11:09.821Z,-1.98
2023-02-26T15:15:01.783Z,-2.46
2023-02-26T15:18:34.379Z,-2.08
2023-02-26T15:22:00.162Z,-2.10
2023-02-26T15:25:22.089Z,-2.04
2023-02-26T15:28:35.745Z,-2.03
2023-02-26T15:31:54.216Z,-2.05
2023-02-26T15:35:04.956Z,-2.16
2023-02-26T15:38:13.809Z,-2.73
2023-02-26T15:41:21.433Z,-2.26
2023-02-26T15:44:33.644Z,-2.24
2023-02-26T15:47:42.898Z,-2.29
2023-02-26T15:50:57.667Z,-2.43
2023-02-26T15:54:06.386Z,-2.40
2023-02-26T15:57:15.922Z,-2.33
2023-02-26T16:00:27.689Z,-2.36
2023-02-26T16:03:40.585Z,-2.27
2023-02-26T16:06:49.724Z,-2.26
2023-02-26T16:09:58.883Z,-2.33
2023-02-26T16:13:06.708Z,-2.32
2023-02-26T16:16:22.151Z,-2.82
2023-02-26T16:19:41.765Z,-2.37
2023-02-26T16:22:53.776Z,-2.28
2023-02-26T16:26:05.511Z,-2.18
2023-02-26T16:29:21.309Z,-2.20
2023-02-26T16:32:32.367Z,-2.13
2023-02-26T16:35:49.384Z,-2.17
2023-02-26T16:39:05.578Z,-2.01
2023-02-26T16:42:19.202Z,-1.98
2023-02-26T16:45:49.569Z,-1.85
2023-02-26T16:49:02.496Z,-2.14
2023-02-26T16:52:17.451Z,-1.81
2023-02-26T16:55:24.032Z,-1.70
2023-02-26T16:58:30.841Z,-1.70
2023-02-26T17:01:44.611Z,-1.65
2023-02-26T17:04:57.817Z,-1.94
2023-02-26T17:08:17.772Z,-1.56
2023-02-26T17:11:31.185Z,-1.55
2023-02-26T17:14:44.454Z,-1.63
2023-02-26T17:17:50.573Z,-1.56
2023-02-26T17:20:58.495Z,-1.67
2023-02-26T17:24:07.411Z,-1.55
2023-02-26T17:27:21.534Z,-1.54
2023-02-26T17:30:31.708Z,-2.44
2023-02-26T17:33:41.386Z,-1.54
2023-02-26T17:36:47.351Z,-1.65
2023-02-26T17:39:57.774Z,-1.68
2023-02-26T17:43:04.786Z,-1.63
2023-02-26T17:46:14.780Z,-1.55
2023-02-26T17:49:20.307Z,-1.59
2023-02-26T17:52:26.930Z,-1.50
2023-02-26T17:55:37.630Z,-1.43
2023-02-26T17:58:45.730Z,-1.39
2023-02-26T18:01:53.589Z,-1.44
2023-02-26T18:05:00.156Z,-1.47
2023-02-26T18:08:05.614Z,-1.53
2023-02-26T18:11:15.923Z,-1.50
2023-02-26T18:14:22.228Z,-1.52
2023-02-26T18:17:34.439Z,-1.64
2023-02-26T18:20:40.044Z,-1.49
2023-02-26T18:23:47.418Z,-1.44
2023-02-26T18:26:55.782Z,-1.45
2023-02-26T18:30:03.042Z,-1.62
2023-02-26T18:33:08.804Z,-1.46
2023-02-26T18:36:34.656Z,-1.44
2023-02-26T18:39:40.366Z,-1.45
2023-02-26T18:42:49.480Z,-1.43
2023-02-26T18:45:57.401Z,-1.40
2023-02-26T18:49:04.442Z,-1.34
2023-02-26T18:52:10.179Z,-1.26
2023-02-26T18:55:17.111Z,-1.30
2023-02-26T18:58:25.970Z,-1.32
2023-02-26T19:01:32.582Z,-1.32
2023-02-26T19:04:38.804Z,-1.28
2023-02-26T19:07:45.710Z,-1.28
2023-02-26T19:10:51.666Z,-1.28
2023-02-26T19:14:01.436Z,-1.37
2023-02-26T19:17:10.314Z,-1.36
2023-02-26T19:20:17.984Z,-1.34
2023-02-26T19:23:24.304Z,-1.25
2023-02-26T19:26:30.798Z,-1.24
2023-02-26T19:29:40.427Z,-1.21
2023-02-26T19:32:46.961Z,-1.23
2023-02-26T19:35:52.552Z,-1.21
2023-02-26T19:38:59.145Z,-1.19
2023-02-26T19:42:04.991Z,-1.19
2023-02-26T19:45:16.055Z,-1.22
2023-02-26T19:48:21.780Z,-1.17
2023-02-26T19:51:28.738Z,-1.21
2023-02-26T19:54:34.906Z,-1.17
2023-02-26T19:57:41.373Z,-1.18
2023-02-26T20:00:49.657Z,-1.16
2023-02-26T20:03:56.463Z,-1.21
2023-02-26T20:07:02.515Z,-1.25
2023-02-26T20:10:11.045Z,-1.24
2023-02-26T20:13:17.451Z,-1.24
2023-02-26T20:16:26.584Z,-1.21
2023-02-26T20:19:32.021Z,-1.23
2023-02-26T20:22:38.725Z,-1.24
2023-02-26T20:25:50.510Z,-1.30
2023-02-26T20:28:57.084Z,-1.34
2023-02-26T20:32:05.552Z,-1.39
2023-02-26T20:35:13.598Z,-1.41
2023-02-26T20:38:23.205Z,-1.50
2023-02-26T20:41:29.786Z,-1.60
2023-02-26T20:44:35.956Z,-1.68
2023-02-26T20:47:45.214Z,-1.76
2023-02-26T20:50:53.876Z,-1.83
2023-02-26T20:54:00.373Z,-1.84
2023-02-26T20:57:06.890Z,-1.87
2023-02-26T21:00:15.626Z,-1.86
2023-02-26T21:03:24.252Z,-1.90
2023-02-26T21:06:31.180Z,-1.81
2023-02-26T21:09:36.721Z,-1.84
2023-02-26T21:12:44.061Z,-1.92
2023-02-26T21:15:51.706Z,-2.01
2023-02-26T21:19:03.896Z,-1.93
2023-02-26T21:22:09.398Z,-1.95
2023-02-26T21:25:16.020Z,-1.99
2023-02-26T21:28:21.701Z,-2.10
2023-02-26T21:31:28.399Z,-2.04
2023-02-26T21:34:38.323Z,-2.02
2023-02-26T21:37:45.013Z,-2.03
2023-02-26T21:40:53.502Z,-2.06
2023-02-26T21:44:00.102Z,-2.09
2023-02-26T21:47:07.588Z,-2.46
2023-02-26T21:50:17.299Z,-2.09
2023-02-26T21:53:23.105Z,-2.01
2023-02-26T21:56:29.411Z,-1.98
2023-02-26T21:59:34.887Z,-1.96
2023-02-26T22:02:42.434Z,-1.87
2023-02-26T22:05:54.085Z,-1.90
2023-02-26T22:09:00.389Z,-1.96
2023-02-26T22:12:07.120Z,-2.05
2023-02-26T22:15:14.446Z,-2.09
2023-02-26T22:18:19.935Z,-2.07
2023-02-26T22:21:29.349Z,-2.11
2023-02-26T22:24:35.150Z,-2.11
2023-02-26T22:27:41.819Z,-2.10
2023-02-26T22:30:47.846Z,-2.18
2023-02-26T22:33:54.138Z,-2.10
2023-02-26T22:37:02.421Z,-2.12
2023-02-26T22:40:10.060Z,-2.17
2023-02-26T22:43:15.480Z,-2.17
2023-02-26T22:46:24.502Z,-2.19
2023-02-26T22:49:30.358Z,-2.18
2023-02-26T22:52:39.413Z,-2.21
2023-02-26T22:55:44.971Z,-2.18
2023-02-26T22:58:51.273Z,-2.30
2023-02-26T23:01:56.818Z,-2.29
2023-02-26T23:05:03.223Z,-2.21
2023-02-26T23:08:11.658Z,-2.30
2023-02-26T23:11:17.928Z,-2.20
2023-02-26T23:14:23.489Z,-2.19
2023-02-26T23:17:30.561Z,-2.54
2023-02-26T23:20:36.152Z,-2.17
2023-02-26T23:23:45.496Z,-2.15
2023-02-26T23:26:51.076Z,-2.11
2023-02-26T23:29:57.382Z,-2.16
2023-02-26T23:33:02.908Z,-2.14
2023-02-26T23:36:10.531Z,-2.17
2023-02-26T23:39:18.818Z,-2.22
2023-02-26T23:42:25.227Z,-2.24
2023-02-26T23:45:30.710Z,-2.29
2023-02-26T23:48:37.265Z,-2.24
2023-02-26T23:51:42.709Z,-2.34
2023-02-26T23:54:52.111Z,-2.40
2023-02-26T23:57:57.553Z,-2.48
